sensor_id;sensor_type;location;lat;lon;timestamp;P1;durP1;ratioP1;P2;durP2;ratioP2
15254;SDS011;7730;49.610;11.136;2023-04-23T00:00:50;11.52;;;3.75;;
15254;SDS011;7730;49.610;11.136;2023-04-23T00:03:18;8.88;;;3.70;;
15254;SDS011;7730;49.610;11.136;2023-04-23T00:05:47;8.50;;;3.60;;
15254;SDS011;7730;49.610;11.136;2023-04-23T00:08:15;9.13;;;3.85;;
15254;SDS011;7730;49.610;11.136;2023-04-23T00:10:44;8.27;;;3.55;;
15254;SDS011;7730;49.610;11.136;2023-04-23T00:13:13;8.20;;;3.50;;
15254;SDS011;7730;49.610;11.136;2023-04-23T00:15:40;8.88;;;3.60;;
15254;SDS011;7730;49.610;11.136;2023-04-23T00:18:10;10.93;;;3.92;;
15254;SDS011;7730;49.610;11.136;2023-04-23T00:20:41;7.68;;;3.42;;
15254;SDS011;7730;49.610;11.136;2023-04-23T00:23:08;7.75;;;3.40;;
15254;SDS011;7730;49.610;11.136;2023-04-23T00:25:35;8.68;;;3.58;;
15254;SDS011;7730;49.610;11.136;2023-04-23T00:28:03;9.32;;;3.55;;
15254;SDS011;7730;49.610;11.136;2023-04-23T00:30:31;7.72;;;3.13;;
15254;SDS011;7730;49.610;11.136;2023-04-23T00:32:59;6.63;;;3.30;;
15254;SDS011;7730;49.610;11.136;2023-04-23T00:35:26;8.10;;;3.45;;
15254;SDS011;7730;49.610;11.136;2023-04-23T00:37:54;8.30;;;3.70;;
15254;SDS011;7730;49.610;11.136;2023-04-23T00:40:21;10.07;;;3.92;;
15254;SDS011;7730;49.610;11.136;2023-04-23T00:42:48;9.68;;;3.70;;
15254;SDS011;7730;49.610;11.136;2023-04-23T00:45:17;9.80;;;3.55;;
15254;SDS011;7730;49.610;11.136;2023-04-23T00:47:46;9.35;;;3.88;;
15254;SDS011;7730;49.610;11.136;2023-04-23T00:50:14;7.50;;;3.53;;
15254;SDS011;7730;49.610;11.136;2023-04-23T00:52:41;7.95;;;3.40;;
15254;SDS011;7730;49.610;11.136;2023-04-23T00:55:08;7.05;;;3.55;;
15254;SDS011;7730;49.610;11.136;2023-04-23T00:57:35;10.52;;;3.67;;
15254;SDS011;7730;49.610;11.136;2023-04-23T01:00:04;9.45;;;3.45;;
15254;SDS011;7730;49.610;11.136;2023-04-23T01:02:32;7.72;;;3.55;;
15254;SDS011;7730;49.610;11.136;2023-04-23T01:05:02;8.13;;;3.60;;
15254;SDS011;7730;49.610;11.136;2023-04-23T01:07:30;8.30;;;3.60;;
15254;SDS011;7730;49.610;11.136;2023-04-23T01:10:00;7.20;;;3.50;;
15254;SDS011;7730;49.610;11.136;2023-04-23T01:12:27;6.10;;;3.20;;
15254;SDS011;7730;49.610;11.136;2023-04-23T01:14:55;6.13;;;3.13;;
15254;SDS011;7730;49.610;11.136;2023-04-23T01:17:22;7.97;;;3.38;;
15254;SDS011;7730;49.610;11.136;2023-04-23T01:19:50;9.63;;;3.40;;
15254;SDS011;7730;49.610;11.136;2023-04-23T01:22:19;8.05;;;3.38;;
15254;SDS011;7730;49.610;11.136;2023-04-23T01:24:46;9.35;;;3.30;;
15254;SDS011;7730;49.610;11.136;2023-04-23T01:27:15;9.52;;;3.47;;
15254;SDS011;7730;49.610;11.136;2023-04-23T01:29:44;8.15;;;3.53;;
15254;SDS011;7730;49.610;11.136;2023-04-23T01:32:11;6.63;;;3.30;;
15254;SDS011;7730;49.610;11.136;2023-04-23T01:34:38;8.20;;;3.63;;
15254;SDS011;7730;49.610;11.136;2023-04-23T01:37:07;7.65;;;3.63;;
15254;SDS011;7730;49.610;11.136;2023-04-23T01:39:36;6.50;;;3.63;;
15254;SDS011;7730;49.610;11.136;2023-04-23T01:42:04;7.80;;;3.70;;
15254;SDS011;7730;49.610;11.136;2023-04-23T01:44:38;6.55;;;3.50;;
15254;SDS011;7730;49.610;11.136;2023-04-23T01:47:06;6.78;;;3.50;;
15254;SDS011;7730;49.610;11.136;2023-04-23T01:49:33;7.82;;;3.50;;
15254;SDS011;7730;49.610;11.136;2023-04-23T01:52:00;7.13;;;3.30;;
15254;SDS011;7730;49.610;11.136;2023-04-23T01:54:28;6.95;;;3.35;;
15254;SDS011;7730;49.610;11.136;2023-04-23T01:57:14;6.13;;;3.22;;
15254;SDS011;7730;49.610;11.136;2023-04-23T01:59:47;7.43;;;3.40;;
15254;SDS011;7730;49.610;11.136;2023-04-23T02:02:14;7.53;;;3.33;;
15254;SDS011;7730;49.610;11.136;2023-04-23T02:04:42;7.45;;;3.35;;
15254;SDS011;7730;49.610;11.136;2023-04-23T02:07:10;8.15;;;3.30;;
15254;SDS011;7730;49.610;11.136;2023-04-23T02:09:37;4.93;;;3.00;;
15254;SDS011;7730;49.610;11.136;2023-04-23T02:12:05;6.45;;;3.42;;
15254;SDS011;7730;49.610;11.136;2023-04-23T02:14:33;5.65;;;3.10;;
15254;SDS011;7730;49.610;11.136;2023-04-23T02:17:00;8.18;;;3.65;;
15254;SDS011;7730;49.610;11.136;2023-04-23T02:19:28;9.20;;;3.70;;
15254;SDS011;7730;49.610;11.136;2023-04-23T02:21:58;7.20;;;3.30;;
15254;SDS011;7730;49.610;11.136;2023-04-23T02:24:25;7.15;;;3.47;;
15254;SDS011;7730;49.610;11.136;2023-04-23T02:26:52;7.65;;;3.30;;
15254;SDS011;7730;49.610;11.136;2023-04-23T02:29:22;7.75;;;3.38;;
15254;SDS011;7730;49.610;11.136;2023-04-23T02:31:50;7.07;;;3.30;;
15254;SDS011;7730;49.610;11.136;2023-04-23T02:34:18;7.35;;;3.40;;
15254;SDS011;7730;49.610;11.136;2023-04-23T02:36:45;5.63;;;3.10;;
15254;SDS011;7730;49.610;11.136;2023-04-23T02:39:12;7.72;;;3.30;;
15254;SDS011;7730;49.610;11.136;2023-04-23T02:41:40;7.15;;;3.10;;
15254;SDS011;7730;49.610;11.136;2023-04-23T02:44:07;6.63;;;3.03;;
15254;SDS011;7730;49.610;11.136;2023-04-23T02:46:34;6.38;;;3.00;;
15254;SDS011;7730;49.610;11.136;2023-04-23T02:49:03;6.28;;;3.30;;
15254;SDS011;7730;49.610;11.136;2023-04-23T02:51:31;7.10;;;3.05;;
15254;SDS011;7730;49.610;11.136;2023-04-23T02:53:59;8.00;;;3.20;;
15254;SDS011;7730;49.610;11.136;2023-04-23T02:56:28;7.00;;;3.28;;
15254;SDS011;7730;49.610;11.136;2023-04-23T02:58:55;8.82;;;3.35;;
15254;SDS011;7730;49.610;11.136;2023-04-23T03:01:22;7.80;;;3.40;;
15254;SDS011;7730;49.610;11.136;2023-04-23T03:03:49;7.50;;;3.13;;
15254;SDS011;7730;49.610;11.136;2023-04-23T03:06:18;8.02;;;3.25;;
15254;SDS011;7730;49.610;11.136;2023-04-23T03:08:45;7.68;;;3.40;;
15254;SDS011;7730;49.610;11.136;2023-04-23T03:11:12;10.23;;;3.70;;
15254;SDS011;7730;49.610;11.136;2023-04-23T03:13:40;10.00;;;3.67;;
15254;SDS011;7730;49.610;11.136;2023-04-23T03:16:07;7.93;;;3.50;;
15254;SDS011;7730;49.610;11.136;2023-04-23T03:18:34;7.63;;;3.50;;
15254;SDS011;7730;49.610;11.136;2023-04-23T03:21:01;7.82;;;3.90;;
15254;SDS011;7730;49.610;11.136;2023-04-23T03:23:30;8.23;;;3.65;;
15254;SDS011;7730;49.610;11.136;2023-04-23T03:25:57;8.85;;;3.60;;
15254;SDS011;7730;49.610;11.136;2023-04-23T03:28:24;8.98;;;3.50;;
15254;SDS011;7730;49.610;11.136;2023-04-23T03:30:51;7.25;;;3.65;;
15254;SDS011;7730;49.610;11.136;2023-04-23T03:33:19;7.55;;;3.55;;
15254;SDS011;7730;49.610;11.136;2023-04-23T03:35:46;7.65;;;3.55;;
15254;SDS011;7730;49.610;11.136;2023-04-23T03:38:13;10.15;;;3.70;;
15254;SDS011;7730;49.610;11.136;2023-04-23T03:40:42;7.28;;;3.20;;
15254;SDS011;7730;49.610;11.136;2023-04-23T03:43:09;6.90;;;3.30;;
15254;SDS011;7730;49.610;11.136;2023-04-23T03:45:37;8.25;;;3.60;;
15254;SDS011;7730;49.610;11.136;2023-04-23T03:48:04;7.28;;;3.40;;
15254;SDS011;7730;49.610;11.136;2023-04-23T03:50:31;8.25;;;3.42;;
15254;SDS011;7730;49.610;11.136;2023-04-23T03:53:03;8.27;;;3.60;;
15254;SDS011;7730;49.610;11.136;2023-04-23T03:55:35;7.70;;;3.30;;
15254;SDS011;7730;49.610;11.136;2023-04-23T03:58:10;6.47;;;3.22;;
15254;SDS011;7730;49.610;11.136;2023-04-23T04:00:37;8.50;;;3.40;;
15254;SDS011;7730;49.610;11.136;2023-04-23T04:05:33;7.90;;;3.75;;
15254;SDS011;7730;49.610;11.136;2023-04-23T04:08:00;8.07;;;3.20;;
15254;SDS011;7730;49.610;11.136;2023-04-23T04:10:29;7.10;;;3.40;;
15254;SDS011;7730;49.610;11.136;2023-04-23T04:12:56;6.03;;;3.10;;
15254;SDS011;7730;49.610;11.136;2023-04-23T04:15:24;9.80;;;3.60;;
15254;SDS011;7730;49.610;11.136;2023-04-23T04:17:51;8.80;;;3.17;;
15254;SDS011;7730;49.610;11.136;2023-04-23T04:20:18;7.13;;;3.25;;
15254;SDS011;7730;49.610;11.136;2023-04-23T04:22:45;7.45;;;3.05;;
15254;SDS011;7730;49.610;11.136;2023-04-23T04:25:12;7.43;;;3.17;;
15254;SDS011;7730;49.610;11.136;2023-04-23T04:27:39;8.23;;;3.20;;
15254;SDS011;7730;49.610;11.136;2023-04-23T04:30:08;8.82;;;3.50;;
15254;SDS011;7730;49.610;11.136;2023-04-23T04:32:36;5.75;;;3.22;;
15254;SDS011;7730;49.610;11.136;2023-04-23T04:35:04;9.05;;;3.65;;
15254;SDS011;7730;49.610;11.136;2023-04-23T04:37:32;7.13;;;3.53;;
15254;SDS011;7730;49.610;11.136;2023-04-23T04:39:59;8.02;;;3.45;;
15254;SDS011;7730;49.610;11.136;2023-04-23T04:42:28;7.50;;;3.40;;
15254;SDS011;7730;49.610;11.136;2023-04-23T04:44:55;8.07;;;3.33;;
15254;SDS011;7730;49.610;11.136;2023-04-23T04:47:23;8.50;;;3.50;;
15254;SDS011;7730;49.610;11.136;2023-04-23T04:49:52;8.50;;;3.63;;
15254;SDS011;7730;49.610;11.136;2023-04-23T04:52:21;6.82;;;3.50;;
15254;SDS011;7730;49.610;11.136;2023-04-23T04:54:48;9.55;;;3.50;;
15254;SDS011;7730;49.610;11.136;2023-04-23T04:57:15;8.57;;;3.55;;
15254;SDS011;7730;49.610;11.136;2023-04-23T04:59:44;8.73;;;3.47;;
15254;SDS011;7730;49.610;11.136;2023-04-23T05:02:11;9.13;;;3.60;;
15254;SDS011;7730;49.610;11.136;2023-04-23T05:04:38;6.88;;;3.40;;
15254;SDS011;7730;49.610;11.136;2023-04-23T05:07:06;6.93;;;3.40;;
15254;SDS011;7730;49.610;11.136;2023-04-23T05:09:33;9.90;;;3.40;;
15254;SDS011;7730;49.610;11.136;2023-04-23T05:12:00;8.05;;;3.42;;
15254;SDS011;7730;49.610;11.136;2023-04-23T05:14:27;8.80;;;3.63;;
15254;SDS011;7730;49.610;11.136;2023-04-23T05:16:54;6.97;;;3.42;;
15254;SDS011;7730;49.610;11.136;2023-04-23T05:19:21;7.93;;;3.35;;
15254;SDS011;7730;49.610;11.136;2023-04-23T05:21:48;7.32;;;3.40;;
15254;SDS011;7730;49.610;11.136;2023-04-23T05:24:17;6.63;;;3.33;;
15254;SDS011;7730;49.610;11.136;2023-04-23T05:26:44;7.45;;;3.35;;
15254;SDS011;7730;49.610;11.136;2023-04-23T05:29:11;10.30;;;3.70;;
15254;SDS011;7730;49.610;11.136;2023-04-23T05:31:43;7.55;;;3.53;;
15254;SDS011;7730;49.610;11.136;2023-04-23T05:34:10;8.07;;;3.60;;
15254;SDS011;7730;49.610;11.136;2023-04-23T05:36:37;7.53;;;3.25;;
15254;SDS011;7730;49.610;11.136;2023-04-23T05:39:04;8.95;;;3.80;;
15254;SDS011;7730;49.610;11.136;2023-04-23T05:41:32;8.52;;;3.65;;
15254;SDS011;7730;49.610;11.136;2023-04-23T05:43:59;7.40;;;3.50;;
15254;SDS011;7730;49.610;11.136;2023-04-23T05:46:26;8.00;;;3.38;;
15254;SDS011;7730;49.610;11.136;2023-04-23T05:48:53;7.65;;;3.50;;
15254;SDS011;7730;49.610;11.136;2023-04-23T05:51:20;8.40;;;3.50;;
15254;SDS011;7730;49.610;11.136;2023-04-23T05:53:48;6.38;;;3.13;;
15254;SDS011;7730;49.610;11.136;2023-04-23T05:56:15;7.70;;;3.38;;
15254;SDS011;7730;49.610;11.136;2023-04-23T05:58:43;7.10;;;3.30;;
15254;SDS011;7730;49.610;11.136;2023-04-23T06:01:10;7.70;;;3.30;;
15254;SDS011;7730;49.610;11.136;2023-04-23T06:03:37;8.60;;;3.30;;
15254;SDS011;7730;49.610;11.136;2023-04-23T06:06:09;6.68;;;3.20;;
15254;SDS011;7730;49.610;11.136;2023-04-23T06:08:36;5.25;;;2.70;;
15254;SDS011;7730;49.610;11.136;2023-04-23T06:11:03;7.15;;;2.97;;
15254;SDS011;7730;49.610;11.136;2023-04-23T06:13:30;7.47;;;2.83;;
15254;SDS011;7730;49.610;11.136;2023-04-23T06:15:59;5.07;;;2.60;;
15254;SDS011;7730;49.610;11.136;2023-04-23T06:18:26;6.68;;;3.10;;
15254;SDS011;7730;49.610;11.136;2023-04-23T06:20:53;4.72;;;2.72;;
15254;SDS011;7730;49.610;11.136;2023-04-23T06:23:21;5.95;;;2.88;;
15254;SDS011;7730;49.610;11.136;2023-04-23T06:25:48;6.82;;;2.80;;
15254;SDS011;7730;49.610;11.136;2023-04-23T06:28:15;6.32;;;2.97;;
15254;SDS011;7730;49.610;11.136;2023-04-23T06:30:42;6.80;;;2.85;;
15254;SDS011;7730;49.610;11.136;2023-04-23T06:33:11;6.22;;;2.80;;
15254;SDS011;7730;49.610;11.136;2023-04-23T06:35:38;6.10;;;2.83;;
15254;SDS011;7730;49.610;11.136;2023-04-23T06:38:05;6.25;;;2.90;;
15254;SDS011;7730;49.610;11.136;2023-04-23T06:40:32;5.47;;;2.95;;
15254;SDS011;7730;49.610;11.136;2023-04-23T06:42:59;6.65;;;2.95;;
15254;SDS011;7730;49.610;11.136;2023-04-23T06:45:29;5.93;;;2.70;;
15254;SDS011;7730;49.610;11.136;2023-04-23T06:47:57;5.90;;;2.78;;
15254;SDS011;7730;49.610;11.136;2023-04-23T06:50:25;6.38;;;2.80;;
15254;SDS011;7730;49.610;11.136;2023-04-23T06:52:53;7.13;;;3.13;;
15254;SDS011;7730;49.610;11.136;2023-04-23T06:55:20;7.85;;;3.17;;
15254;SDS011;7730;49.610;11.136;2023-04-23T06:57:50;6.13;;;3.15;;
15254;SDS011;7730;49.610;11.136;2023-04-23T07:00:17;5.45;;;2.60;;
15254;SDS011;7730;49.610;11.136;2023-04-23T07:02:44;7.72;;;3.20;;
15254;SDS011;7730;49.610;11.136;2023-04-23T07:05:11;4.95;;;2.70;;
15254;SDS011;7730;49.610;11.136;2023-04-23T07:07:40;6.05;;;2.78;;
15254;SDS011;7730;49.610;11.136;2023-04-23T07:10:07;5.03;;;2.90;;
15254;SDS011;7730;49.610;11.136;2023-04-23T07:12:35;5.85;;;2.90;;
15254;SDS011;7730;49.610;11.136;2023-04-23T07:15:02;5.10;;;2.78;;
15254;SDS011;7730;49.610;11.136;2023-04-23T07:17:30;5.78;;;2.55;;
15254;SDS011;7730;49.610;11.136;2023-04-23T07:19:57;4.35;;;2.60;;
15254;SDS011;7730;49.610;11.136;2023-04-23T07:22:24;5.03;;;2.65;;
15254;SDS011;7730;49.610;11.136;2023-04-23T07:24:53;8.20;;;2.95;;
15254;SDS011;7730;49.610;11.136;2023-04-23T07:27:20;7.15;;;2.95;;
15254;SDS011;7730;49.610;11.136;2023-04-23T07:29:47;4.43;;;2.63;;
15254;SDS011;7730;49.610;11.136;2023-04-23T07:32:14;6.10;;;2.60;;
15254;SDS011;7730;49.610;11.136;2023-04-23T07:34:41;5.60;;;2.70;;
15254;SDS011;7730;49.610;11.136;2023-04-23T07:37:08;5.30;;;2.60;;
15254;SDS011;7730;49.610;11.136;2023-04-23T07:39:35;5.30;;;2.65;;
15254;SDS011;7730;49.610;11.136;2023-04-23T07:42:03;4.35;;;2.60;;
15254;SDS011;7730;49.610;11.136;2023-04-23T07:44:30;5.80;;;2.35;;
15254;SDS011;7730;49.610;11.136;2023-04-23T07:46:57;5.93;;;2.83;;
15254;SDS011;7730;49.610;11.136;2023-04-23T07:49:24;5.60;;;2.78;;
15254;SDS011;7730;49.610;11.136;2023-04-23T07:51:52;6.38;;;2.90;;
15254;SDS011;7730;49.610;11.136;2023-04-23T07:54:19;5.95;;;3.00;;
15254;SDS011;7730;49.610;11.136;2023-04-23T07:56:46;6.30;;;2.90;;
15254;SDS011;7730;49.610;11.136;2023-04-23T07:59:14;4.07;;;2.63;;
15254;SDS011;7730;49.610;11.136;2023-04-23T08:01:41;4.60;;;2.72;;
15254;SDS011;7730;49.610;11.136;2023-04-23T08:04:10;3.78;;;2.50;;
15254;SDS011;7730;49.610;11.136;2023-04-23T08:06:37;7.00;;;2.72;;
15254;SDS011;7730;49.610;11.136;2023-04-23T08:09:05;5.38;;;2.45;;
15254;SDS011;7730;49.610;11.136;2023-04-23T08:11:33;8.15;;;3.00;;
15254;SDS011;7730;49.610;11.136;2023-04-23T08:14:00;5.18;;;2.75;;
15254;SDS011;7730;49.610;11.136;2023-04-23T08:16:28;5.10;;;2.58;;
15254;SDS011;7730;49.610;11.136;2023-04-23T08:18:55;5.13;;;2.63;;
15254;SDS011;7730;49.610;11.136;2023-04-23T08:21:23;6.15;;;2.75;;
15254;SDS011;7730;49.610;11.136;2023-04-23T08:23:51;5.07;;;2.60;;
15254;SDS011;7730;49.610;11.136;2023-04-23T08:26:18;5.53;;;2.80;;
15254;SDS011;7730;49.610;11.136;2023-04-23T08:28:45;6.97;;;3.03;;
15254;SDS011;7730;49.610;11.136;2023-04-23T08:31:12;5.53;;;2.75;;
15254;SDS011;7730;49.610;11.136;2023-04-23T08:33:41;6.97;;;2.65;;
15254;SDS011;7730;49.610;11.136;2023-04-23T08:36:08;5.18;;;2.88;;
15254;SDS011;7730;49.610;11.136;2023-04-23T08:38:35;4.95;;;2.80;;
15254;SDS011;7730;49.610;11.136;2023-04-23T08:41:04;4.50;;;2.60;;
15254;SDS011;7730;49.610;11.136;2023-04-23T08:43:32;6.78;;;2.70;;
15254;SDS011;7730;49.610;11.136;2023-04-23T08:46:03;6.57;;;2.83;;
15254;SDS011;7730;49.610;11.136;2023-04-23T08:48:30;4.03;;;2.20;;
15254;SDS011;7730;49.610;11.136;2023-04-23T08:51:01;6.07;;;2.80;;
15254;SDS011;7730;49.610;11.136;2023-04-23T08:53:30;4.03;;;2.42;;
15254;SDS011;7730;49.610;11.136;2023-04-23T08:55:57;4.18;;;2.28;;
15254;SDS011;7730;49.610;11.136;2023-04-23T08:58:25;3.20;;;2.10;;
15254;SDS011;7730;49.610;11.136;2023-04-23T09:00:52;2.63;;;1.90;;
15254;SDS011;7730;49.610;11.136;2023-04-23T09:03:22;3.08;;;1.77;;
15254;SDS011;7730;49.610;11.136;2023-04-23T09:05:49;4.07;;;1.90;;
15254;SDS011;7730;49.610;11.136;2023-04-23T09:08:19;2.70;;;1.90;;
15254;SDS011;7730;49.610;11.136;2023-04-23T09:10:46;3.67;;;2.00;;
15254;SDS011;7730;49.610;11.136;2023-04-23T09:13:14;3.65;;;1.80;;
15254;SDS011;7730;49.610;11.136;2023-04-23T09:15:41;2.97;;;1.80;;
15254;SDS011;7730;49.610;11.136;2023-04-23T09:18:08;2.45;;;1.80;;
15254;SDS011;7730;49.610;11.136;2023-04-23T09:20:36;3.95;;;1.90;;
15254;SDS011;7730;49.610;11.136;2023-04-23T09:23:05;3.53;;;1.70;;
15254;SDS011;7730;49.610;11.136;2023-04-23T09:25:34;2.88;;;1.77;;
15254;SDS011;7730;49.610;11.136;2023-04-23T09:28:01;3.40;;;1.70;;
15254;SDS011;7730;49.610;11.136;2023-04-23T09:30:28;3.22;;;1.80;;
15254;SDS011;7730;49.610;11.136;2023-04-23T09:32:55;4.38;;;1.90;;
15254;SDS011;7730;49.610;11.136;2023-04-23T09:35:22;3.55;;;1.90;;
15254;SDS011;7730;49.610;11.136;2023-04-23T09:37:53;3.88;;;1.80;;
15254;SDS011;7730;49.610;11.136;2023-04-23T09:40:21;2.75;;;1.73;;
15254;SDS011;7730;49.610;11.136;2023-04-23T09:42:51;4.03;;;2.00;;
15254;SDS011;7730;49.610;11.136;2023-04-23T09:45:18;3.20;;;2.00;;
15254;SDS011;7730;49.610;11.136;2023-04-23T09:47:49;2.67;;;1.98;;
15254;SDS011;7730;49.610;11.136;2023-04-23T09:50:16;3.30;;;1.60;;
15254;SDS011;7730;49.610;11.136;2023-04-23T09:52:43;3.03;;;1.73;;
15254;SDS011;7730;49.610;11.136;2023-04-23T09:55:10;2.83;;;1.77;;
15254;SDS011;7730;49.610;11.136;2023-04-23T09:57:38;3.40;;;2.00;;
15254;SDS011;7730;49.610;11.136;2023-04-23T10:00:14;2.80;;;1.90;;
15254;SDS011;7730;49.610;11.136;2023-04-23T10:02:45;4.13;;;1.90;;
15254;SDS011;7730;49.610;11.136;2023-04-23T10:05:13;3.63;;;1.73;;
15254;SDS011;7730;49.610;11.136;2023-04-23T10:07:41;4.15;;;1.88;;
15254;SDS011;7730;49.610;11.136;2023-04-23T10:10:09;4.32;;;1.75;;
15254;SDS011;7730;49.610;11.136;2023-04-23T10:12:36;2.47;;;1.70;;
15254;SDS011;7730;49.610;11.136;2023-04-23T10:15:04;3.80;;;1.88;;
15254;SDS011;7730;49.610;11.136;2023-04-23T10:17:32;3.40;;;1.58;;
15254;SDS011;7730;49.610;11.136;2023-04-23T10:20:00;3.20;;;1.88;;
15254;SDS011;7730;49.610;11.136;2023-04-23T10:22:28;2.25;;;1.52;;
15254;SDS011;7730;49.610;11.136;2023-04-23T10:24:56;2.78;;;1.85;;
15254;SDS011;7730;49.610;11.136;2023-04-23T10:27:25;4.03;;;1.90;;
15254;SDS011;7730;49.610;11.136;2023-04-23T10:29:53;4.70;;;1.90;;
15254;SDS011;7730;49.610;11.136;2023-04-23T10:32:20;2.60;;;1.48;;
15254;SDS011;7730;49.610;11.136;2023-04-23T10:34:49;1.60;;;1.33;;
15254;SDS011;7730;49.610;11.136;2023-04-23T10:37:16;4.13;;;1.60;;
15254;SDS011;7730;49.610;11.136;2023-04-23T10:39:43;1.52;;;1.40;;
15254;SDS011;7730;49.610;11.136;2023-04-23T10:42:11;2.38;;;1.27;;
15254;SDS011;7730;49.610;11.136;2023-04-23T10:44:40;4.03;;;1.83;;
15254;SDS011;7730;49.610;11.136;2023-04-23T10:47:10;2.42;;;1.58;;
15254;SDS011;7730;49.610;11.136;2023-04-23T10:49:38;1.65;;;1.45;;
15254;SDS011;7730;49.610;11.136;2023-04-23T10:52:08;2.17;;;1.73;;
15254;SDS011;7730;49.610;11.136;2023-04-23T10:54:38;1.80;;;1.50;;
15254;SDS011;7730;49.610;11.136;2023-04-23T10:57:06;2.88;;;1.52;;
15254;SDS011;7730;49.610;11.136;2023-04-23T10:59:34;1.70;;;1.60;;
15254;SDS011;7730;49.610;11.136;2023-04-23T11:02:04;3.72;;;1.75;;
15254;SDS011;7730;49.610;11.136;2023-04-23T11:04:32;3.08;;;1.73;;
15254;SDS011;7730;49.610;11.136;2023-04-23T11:07:03;4.25;;;1.80;;
15254;SDS011;7730;49.610;11.136;2023-04-23T11:09:35;5.47;;;2.15;;
15254;SDS011;7730;49.610;11.136;2023-04-23T11:12:04;2.42;;;1.70;;
15254;SDS011;7730;49.610;11.136;2023-04-23T11:14:32;3.35;;;1.80;;
15254;SDS011;7730;49.610;11.136;2023-04-23T11:17:00;2.33;;;1.70;;
15254;SDS011;7730;49.610;11.136;2023-04-23T11:19:27;6.75;;;2.35;;
15254;SDS011;7730;49.610;11.136;2023-04-23T11:21:56;4.20;;;2.20;;
15254;SDS011;7730;49.610;11.136;2023-04-23T11:24:23;7.65;;;2.30;;
15254;SDS011;7730;49.610;11.136;2023-04-23T11:26:52;5.82;;;2.40;;
15254;SDS011;7730;49.610;11.136;2023-04-23T11:29:20;3.03;;;1.80;;
15254;SDS011;7730;49.610;11.136;2023-04-23T11:31:47;3.58;;;1.85;;
15254;SDS011;7730;49.610;11.136;2023-04-23T11:34:15;5.88;;;2.38;;
15254;SDS011;7730;49.610;11.136;2023-04-23T11:36:42;4.53;;;2.03;;
15254;SDS011;7730;49.610;11.136;2023-04-23T11:39:09;4.45;;;2.00;;
15254;SDS011;7730;49.610;11.136;2023-04-23T11:41:37;4.45;;;1.90;;
15254;SDS011;7730;49.610;11.136;2023-04-23T11:44:05;4.82;;;2.22;;
15254;SDS011;7730;49.610;11.136;2023-04-23T11:46:33;4.45;;;1.70;;
15254;SDS011;7730;49.610;11.136;2023-04-23T11:49:02;4.78;;;2.00;;
15254;SDS011;7730;49.610;11.136;2023-04-23T11:51:30;3.83;;;1.90;;
15254;SDS011;7730;49.610;11.136;2023-04-23T11:54:01;2.47;;;1.80;;
15254;SDS011;7730;49.610;11.136;2023-04-23T11:56:28;5.07;;;2.22;;
15254;SDS011;7730;49.610;11.136;2023-04-23T11:58:58;4.07;;;2.03;;
15254;SDS011;7730;49.610;11.136;2023-04-23T12:01:35;5.57;;;2.13;;
15254;SDS011;7730;49.610;11.136;2023-04-23T12:04:07;4.15;;;1.90;;
15254;SDS011;7730;49.610;11.136;2023-04-23T12:06:35;2.83;;;1.83;;
15254;SDS011;7730;49.610;11.136;2023-04-23T12:09:02;5.32;;;1.80;;
15254;SDS011;7730;49.610;11.136;2023-04-23T12:11:29;4.10;;;1.92;;
15254;SDS011;7730;49.610;11.136;2023-04-23T12:13:57;3.70;;;1.85;;
15254;SDS011;7730;49.610;11.136;2023-04-23T12:16:32;3.08;;;1.75;;
15254;SDS011;7730;49.610;11.136;2023-04-23T12:19:01;3.10;;;1.52;;
15254;SDS011;7730;49.610;11.136;2023-04-23T12:21:28;4.40;;;1.70;;
15254;SDS011;7730;49.610;11.136;2023-04-23T12:23:55;3.33;;;1.50;;
15254;SDS011;7730;49.610;11.136;2023-04-23T12:26:23;3.35;;;1.70;;
15254;SDS011;7730;49.610;11.136;2023-04-23T12:28:51;3.00;;;1.63;;
15254;SDS011;7730;49.610;11.136;2023-04-23T12:31:18;3.95;;;1.92;;
15254;SDS011;7730;49.610;11.136;2023-04-23T12:33:46;3.22;;;1.60;;
15254;SDS011;7730;49.610;11.136;2023-04-23T12:36:14;3.40;;;1.42;;
15254;SDS011;7730;49.610;11.136;2023-04-23T12:38:41;2.17;;;1.63;;
15254;SDS011;7730;49.610;11.136;2023-04-23T12:41:09;2.53;;;1.40;;
15254;SDS011;7730;49.610;11.136;2023-04-23T12:43:36;3.08;;;1.55;;
15254;SDS011;7730;49.610;11.136;2023-04-23T12:46:03;3.15;;;1.60;;
15254;SDS011;7730;49.610;11.136;2023-04-23T12:48:30;2.85;;;1.45;;
15254;SDS011;7730;49.610;11.136;2023-04-23T12:50:57;2.10;;;1.50;;
15254;SDS011;7730;49.610;11.136;2023-04-23T12:53:25;3.53;;;1.67;;
15254;SDS011;7730;49.610;11.136;2023-04-23T12:55:53;1.80;;;1.50;;
15254;SDS011;7730;49.610;11.136;2023-04-23T12:58:20;4.10;;;1.67;;
15254;SDS011;7730;49.610;11.136;2023-04-23T13:00:47;1.50;;;1.40;;
15254;SDS011;7730;49.610;11.136;2023-04-23T13:03:14;3.53;;;1.50;;
15254;SDS011;7730;49.610;11.136;2023-04-23T13:05:43;2.67;;;1.30;;
15254;SDS011;7730;49.610;11.136;2023-04-23T13:08:10;1.77;;;1.38;;
15254;SDS011;7730;49.610;11.136;2023-04-23T13:10:38;2.28;;;1.40;;
15254;SDS011;7730;49.610;11.136;2023-04-23T13:13:05;2.55;;;1.55;;
15254;SDS011;7730;49.610;11.136;2023-04-23T13:15:32;3.22;;;1.33;;
15254;SDS011;7730;49.610;11.136;2023-04-23T13:17:59;2.95;;;1.40;;
15254;SDS011;7730;49.610;11.136;2023-04-23T13:20:26;2.17;;;1.50;;
15254;SDS011;7730;49.610;11.136;2023-04-23T13:22:53;2.97;;;1.40;;
15254;SDS011;7730;49.610;11.136;2023-04-23T13:25:20;1.60;;;1.23;;
15254;SDS011;7730;49.610;11.136;2023-04-23T13:27:49;2.65;;;1.48;;
15254;SDS011;7730;49.610;11.136;2023-04-23T13:30:16;1.67;;;1.30;;
15254;SDS011;7730;49.610;11.136;2023-04-23T13:32:43;3.58;;;1.48;;
15254;SDS011;7730;49.610;11.136;2023-04-23T13:35:10;1.58;;;1.20;;
15254;SDS011;7730;49.610;11.136;2023-04-23T13:37:40;3.00;;;1.35;;
15254;SDS011;7730;49.610;11.136;2023-04-23T13:40:07;1.65;;;1.42;;
15254;SDS011;7730;49.610;11.136;2023-04-23T13:42:34;1.38;;;1.20;;
15254;SDS011;7730;49.610;11.136;2023-04-23T13:45:03;1.30;;;1.20;;
15254;SDS011;7730;49.610;11.136;2023-04-23T13:47:31;2.00;;;1.35;;
15254;SDS011;7730;49.610;11.136;2023-04-23T13:49:58;1.20;;;1.10;;
15254;SDS011;7730;49.610;11.136;2023-04-23T13:52:29;1.98;;;1.10;;
15254;SDS011;7730;49.610;11.136;2023-04-23T13:54:56;2.28;;;1.23;;
15254;SDS011;7730;49.610;11.136;2023-04-23T13:57:24;2.53;;;1.15;;
15254;SDS011;7730;49.610;11.136;2023-04-23T13:59:51;3.38;;;1.20;;
15254;SDS011;7730;49.610;11.136;2023-04-23T14:02:21;1.65;;;1.13;;
15254;SDS011;7730;49.610;11.136;2023-04-23T14:04:48;1.98;;;1.38;;
15254;SDS011;7730;49.610;11.136;2023-04-23T14:07:15;1.63;;;1.02;;
15254;SDS011;7730;49.610;11.136;2023-04-23T14:09:42;2.00;;;1.35;;
15254;SDS011;7730;49.610;11.136;2023-04-23T14:12:11;1.35;;;1.25;;
15254;SDS011;7730;49.610;11.136;2023-04-23T14:14:38;1.98;;;1.10;;
15254;SDS011;7730;49.610;11.136;2023-04-23T14:17:05;3.08;;;1.20;;
15254;SDS011;7730;49.610;11.136;2023-04-23T14:19:33;1.67;;;1.20;;
15254;SDS011;7730;49.610;11.136;2023-04-23T14:22:02;1.42;;;1.10;;
15254;SDS011;7730;49.610;11.136;2023-04-23T14:24:32;1.65;;;1.20;;
15254;SDS011;7730;49.610;11.136;2023-04-23T14:26:59;1.88;;;1.13;;
15254;SDS011;7730;49.610;11.136;2023-04-23T14:29:28;2.25;;;1.38;;
15254;SDS011;7730;49.610;11.136;2023-04-23T14:31:56;1.65;;;1.23;;
15254;SDS011;7730;49.610;11.136;2023-04-23T14:34:23;3.28;;;1.40;;
15254;SDS011;7730;49.610;11.136;2023-04-23T14:36:52;2.45;;;1.20;;
15254;SDS011;7730;49.610;11.136;2023-04-23T14:39:20;1.92;;;1.05;;
15254;SDS011;7730;49.610;11.136;2023-04-23T14:41:47;1.63;;;0.98;;
15254;SDS011;7730;49.610;11.136;2023-04-23T14:44:14;2.25;;;1.20;;
15254;SDS011;7730;49.610;11.136;2023-04-23T14:46:41;1.92;;;1.30;;
15254;SDS011;7730;49.610;11.136;2023-04-23T14:49:08;2.47;;;1.08;;
15254;SDS011;7730;49.610;11.136;2023-04-23T14:51:35;2.58;;;1.27;;
15254;SDS011;7730;49.610;11.136;2023-04-23T14:54:04;1.38;;;1.20;;